createdAt,value
2018-06-11T00:01:37.315Z,98564.20
2018-06-11T00:04:06.944Z,98560.17
2018-06-11T00:06:36.405Z,98561.14
2018-06-11T00:09:08.072Z,98556.09
2018-06-11T00:11:37.480Z,98552.77
2018-06-11T00:14:07.150Z,98556.42
2018-06-11T00:16:36.496Z,98560.08
2018-06-11T00:19:05.954Z,98556.80
2018-06-11T00:21:35.303Z,98563.50
2018-06-11T00:24:04.726Z,98569.20
2018-06-11T00:26:34.112Z,98571.94
2018-06-11T00:29:03.512Z,98563.86
2018-06-11T00:31:32.916Z,98571.94
2018-06-11T00:34:02.260Z,98569.75
2018-06-11T00:36:31.664Z,98571.97
2018-06-11T00:39:01.164Z,98572.00
2018-06-11T00:41:30.537Z,98565.47
2018-06-11T00:43:59.893Z,98578.40
2018-06-11T00:46:29.307Z,98566.63
2018-06-11T00:48:58.701Z,98572.95
2018-06-11T00:51:28.134Z,98570.09
2018-06-11T00:53:57.506Z,98573.86
2018-06-11T00:56:26.901Z,98579.65
2018-06-11T00:58:56.312Z,98579.09
2018-06-11T01:01:25.737Z,98584.83
2018-06-11T01:03:55.148Z,98580.09
2018-06-11T01:06:24.554Z,98580.95
2018-06-11T01:08:54.004Z,98587.50
2018-06-11T01:11:23.410Z,98576.92
2018-06-11T01:13:52.984Z,98578.45
2018-06-11T01:16:22.384Z,98581.36
2018-06-11T01:18:51.848Z,98580.35
2018-06-11T01:21:21.226Z,98576.52
2018-06-11T01:23:50.602Z,98573.16
2018-06-11T01:26:19.967Z,98571.97
2018-06-11T01:28:49.362Z,98576.33
2018-06-11T01:31:18.748Z,98575.80
2018-06-11T01:33:48.132Z,98573.27
2018-06-11T01:36:17.551Z,98563.73
2018-06-11T01:38:46.909Z,98570.78
2018-06-11T01:41:16.274Z,98570.44
2018-06-11T01:43:45.661Z,98567.39
2018-06-11T01:46:15.066Z,98569.63
2018-06-11T01:48:44.464Z,98566.27
2018-06-11T01:51:15.069Z,98560.38
2018-06-11T01:53:44.501Z,98553.37
2018-06-11T01:56:14.347Z,98552.37
2018-06-11T01:58:44.038Z,98560.91
2018-06-11T02:01:13.504Z,98561.72
2018-06-11T02:03:42.935Z,98562.02
2018-06-11T02:06:12.303Z,98559.34
2018-06-11T02:08:41.703Z,98567.20
2018-06-11T02:11:11.084Z,98573.88
2018-06-11T02:13:40.457Z,98560.77
2018-06-11T02:16:10.441Z,98567.13
2018-06-11T02:18:39.853Z,98567.28
2018-06-11T02:21:09.229Z,98567.80
2018-06-11T02:23:38.649Z,98565.42
2018-06-11T02:26:08.142Z,98564.94
2018-06-11T02:28:37.556Z,98566.98
2018-06-11T02:31:06.993Z,98574.50
2018-06-11T02:33:36.373Z,98570.93
2018-06-11T02:36:05.857Z,98578.19
2018-06-11T02:38:35.226Z,98571.30
2018-06-11T02:41:05.303Z,98577.00
2018-06-11T02:43:34.745Z,98573.80
2018-06-11T02:46:04.190Z,98574.02
2018-06-11T02:48:33.753Z,98574.77
2018-06-11T02:51:05.515Z,98569.47
2018-06-11T02:53:34.937Z,98568.53
2018-06-11T02:56:04.719Z,98576.94
2018-06-11T02:58:34.209Z,98576.61
2018-06-11T03:01:03.581Z,98572.06
2018-06-11T03:03:33.012Z,98576.91
2018-06-11T03:06:02.399Z,98574.69
2018-06-11T03:08:32.553Z,98571.33
2018-06-11T03:11:01.909Z,98578.19
2018-06-11T03:13:31.267Z,98580.84
2018-06-11T03:16:00.625Z,98581.17
2018-06-11T03:18:30.178Z,98589.22
2018-06-11T03:20:59.531Z,98592.23
2018-06-11T03:23:29.063Z,98591.86
2018-06-11T03:25:58.817Z,98589.14
2018-06-11T03:28:28.217Z,98586.77
2018-06-11T03:31:01.180Z,98589.11
2018-06-11T03:33:30.572Z,98594.66
2018-06-11T03:36:03.772Z,98595.33
2018-06-11T03:38:33.259Z,98604.56
2018-06-11T03:41:02.885Z,98603.23
2018-06-11T03:43:32.293Z,98608.92
2018-06-11T03:46:01.657Z,98604.52
2018-06-11T03:48:31.045Z,98608.55
2018-06-11T03:51:00.541Z,98615.74
2018-06-11T03:53:29.959Z,98616.45
2018-06-11T03:56:00.122Z,98615.67
2018-06-11T03:58:29.496Z,98618.05
2018-06-11T04:00:58.847Z,98620.26
2018-06-11T04:03:28.325Z,98627.00
2018-06-11T04:05:58.445Z,98632.25
2018-06-11T04:08:27.886Z,98630.13
2018-06-11T04:10:57.327Z,98621.95
2018-06-11T04:13:26.904Z,98469.14
2018-06-11T04:15:56.281Z,98623.09
2018-06-11T04:18:25.652Z,98624.27
2018-06-11T04:20:55.037Z,98630.67
2018-06-11T04:23:24.416Z,98631.22
2018-06-11T04:25:53.907Z,98635.92
2018-06-11T04:28:23.273Z,98638.63
2018-06-11T04:30:55.591Z,98639.02
2018-06-11T04:33:24.989Z,98639.35
2018-06-11T04:36:02.917Z,98655.16
2018-06-11T04:38:32.280Z,98653.20
2018-06-11T04:41:10.254Z,98662.97
2018-06-11T04:43:40.821Z,98665.35
2018-06-11T04:46:13.556Z,98671.30
2018-06-11T04:48:43.890Z,98674.66
2018-06-11T04:51:13.249Z,98679.36
2018-06-11T04:53:42.618Z,98682.11
2018-06-11T04:56:11.970Z,98682.63
2018-06-11T04:58:41.340Z,98683.82
2018-06-11T05:01:11.180Z,98687.16
2018-06-11T05:03:40.521Z,98685.52
2018-06-11T05:06:09.985Z,98690.27
2018-06-11T05:08:40.088Z,98690.78
2018-06-11T05:11:09.503Z,98689.91
2018-06-11T05:13:38.873Z,98690.63
2018-06-11T05:16:12.136Z,98688.59
2018-06-11T05:18:41.493Z,98693.50
2018-06-11T05:21:10.868Z,98695.55
2018-06-11T05:23:40.273Z,98693.22
2018-06-11T05:26:09.658Z,98699.80
2018-06-11T05:28:39.032Z,98709.34
2018-06-11T05:31:08.522Z,98701.31
2018-06-11T05:33:37.904Z,98700.42
2018-06-11T05:36:07.256Z,98708.86
2018-06-11T05:38:36.595Z,98700.48
2018-06-11T05:41:06.073Z,98699.97
2018-06-11T05:43:35.456Z,98702.16
2018-06-11T05:46:06.740Z,98702.16
2018-06-11T05:48:36.118Z,98706.55
2018-06-11T05:54:17.587Z,98702.84
2018-06-11T05:56:46.958Z,98707.59
2018-06-11T05:59:16.314Z,98692.80
2018-06-11T06:01:47.560Z,98709.58
2018-06-11T06:04:16.993Z,98711.98
2018-06-11T06:06:46.344Z,98711.98
2018-06-11T06:09:15.712Z,98711.16
2018-06-11T06:11:45.101Z,98718.22
2018-06-11T06:14:14.481Z,98721.77
2018-06-11T06:16:43.850Z,98712.17
2018-06-11T06:19:13.242Z,98709.80
2018-06-11T06:21:42.666Z,98707.11
2018-06-11T06:24:12.037Z,98707.45
2018-06-11T06:26:41.438Z,98708.98
2018-06-11T06:29:11.024Z,98718.05
2018-06-11T06:31:40.441Z,98708.62
2018-06-11T06:34:09.898Z,98708.62
2018-06-11T06:36:39.461Z,98708.10
2018-06-11T06:39:09.584Z,98705.60
2018-06-11T06:41:38.952Z,98703.89
2018-06-11T06:44:08.713Z,98700.22
2018-06-11T06:46:38.113Z,98697.16
2018-06-11T06:49:07.515Z,98701.04
2018-06-11T06:51:36.913Z,98690.14
2018-06-11T06:54:06.372Z,98696.18
2018-06-11T06:56:35.834Z,98694.80
2018-06-11T06:59:05.420Z,98684.39
2018-06-11T07:01:34.808Z,98687.94
2018-06-11T07:04:04.206Z,98694.84
2018-06-11T07:06:34.056Z,98687.73
2018-06-11T07:09:03.596Z,98683.86
2018-06-11T07:11:32.980Z,98684.88
2018-06-11T07:14:02.362Z,98684.55
2018-06-11T07:16:31.727Z,98676.59
2018-06-11T07:19:01.192Z,98688.75
2018-06-11T07:21:30.651Z,98684.88
2018-06-11T07:24:00.029Z,98678.31
2018-06-11T07:26:29.377Z,98673.13
2018-06-11T07:28:58.745Z,98673.13
2018-06-11T07:31:28.254Z,98665.48
2018-06-11T07:33:57.633Z,98667.53
2018-06-11T07:36:27.008Z,98667.52
2018-06-11T07:38:56.561Z,98660.74
2018-06-11T07:41:25.938Z,98652.66
2018-06-11T07:43:55.319Z,98647.73
2018-06-11T07:46:24.701Z,98645.13
2018-06-11T07:48:54.076Z,98650.84
2018-06-11T07:51:23.440Z,98649.98
2018-06-11T07:53:52.857Z,98653.49
2018-06-11T07:56:22.334Z,98642.36
2018-06-11T07:58:51.688Z,98651.08
2018-06-11T08:01:21.145Z,98647.66
2018-06-11T08:03:50.652Z,98653.02
2018-06-11T08:06:20.001Z,98645.91
2018-06-11T08:08:50.084Z,98643.68
2018-06-11T08:11:19.655Z,98649.53
2018-06-11T08:13:49.034Z,98645.13
2018-06-11T08:16:18.500Z,98633.45
2018-06-11T08:18:47.905Z,98627.63
2018-06-11T08:21:17.256Z,98634.81
2018-06-11T08:23:49.636Z,98633.05
2018-06-11T08:26:19.114Z,98636.69
2018-06-11T08:28:48.577Z,98635.42
2018-06-11T08:31:18.001Z,98637.49
2018-06-11T08:33:47.387Z,98631.84
2018-06-11T08:36:16.728Z,98632.55
2018-06-11T08:38:46.098Z,98634.58
2018-06-11T08:41:15.685Z,98632.73
2018-06-11T08:43:45.041Z,98634.18
2018-06-11T08:46:14.413Z,98634.00
2018-06-11T08:48:43.941Z,98638.19
2018-06-11T08:51:13.303Z,98632.88
2018-06-11T08:53:42.761Z,98630.97
2018-06-11T08:56:12.138Z,98632.16
2018-06-11T08:58:41.512Z,98623.06
2018-06-11T09:01:10.934Z,98619.19
2018-06-11T09:03:40.286Z,98617.25
2018-06-11T09:06:09.652Z,98610.94
2018-06-11T09:08:39.060Z,98612.38
2018-06-11T09:11:08.472Z,98612.61
2018-06-11T09:13:37.857Z,98618.10
2018-06-11T09:16:07.233Z,98612.13
2018-06-11T09:18:36.609Z,98617.97
2018-06-11T09:21:07.006Z,98616.75
2018-06-11T09:23:36.375Z,98620.85
2018-06-11T09:26:05.859Z,98619.00
2018-06-11T09:28:35.824Z,98615.81
2018-06-11T09:31:05.240Z,98616.30
2018-06-11T09:33:34.744Z,98626.05
2018-06-11T09:36:04.156Z,98626.45
2018-06-11T09:38:33.518Z,98622.94
2018-06-11T09:41:02.994Z,98617.80
2018-06-11T09:43:32.347Z,98622.42
2018-06-11T09:46:01.712Z,98619.79
2018-06-11T09:48:31.060Z,98617.34
2018-06-11T09:51:00.436Z,98623.36
2018-06-11T09:53:29.939Z,98618.78
2018-06-11T09:55:59.297Z,98626.05
2018-06-11T09:58:29.012Z,98623.69
2018-06-11T10:00:58.864Z,98632.62
2018-06-11T10:03:28.233Z,98627.58
2018-06-11T10:05:58.170Z,98636.26
2018-06-11T10:08:27.509Z,98633.66
2018-06-11T10:10:57.027Z,98637.75
2018-06-11T10:13:26.350Z,98635.95
2018-06-11T10:15:55.725Z,98627.52
2018-06-11T10:18:25.084Z,98627.31
2018-06-11T10:20:54.468Z,98627.95
2018-06-11T10:23:23.944Z,98623.83
2018-06-11T10:25:53.365Z,98626.16
2018-06-11T10:28:22.753Z,98626.64
2018-06-11T10:30:52.163Z,98630.13
2018-06-11T10:33:21.532Z,98621.09
2018-06-11T10:35:51.437Z,98620.06
2018-06-11T10:38:20.826Z,98613.41
2018-06-11T10:40:50.189Z,98620.37
2018-06-11T10:43:19.551Z,98606.37
2018-06-11T10:45:49.286Z,98610.02
2018-06-11T10:48:18.679Z,98614.33
2018-06-11T10:50:48.049Z,98612.77
2018-06-11T10:53:17.445Z,98609.36
2018-06-11T10:55:46.813Z,98604.70
2018-06-11T10:58:16.241Z,98606.81
2018-06-11T11:00:45.604Z,98601.07
2018-06-11T11:03:14.964Z,98606.55
2018-06-11T11:05:44.368Z,98604.91
2018-06-11T11:08:14.026Z,98614.52
2018-06-11T11:10:43.960Z,98615.57
2018-06-11T11:13:13.482Z,98607.11
2018-06-11T11:15:43.008Z,98610.73
2018-06-11T11:18:12.430Z,98605.99
2018-06-11T11:20:41.688Z,98597.34
2018-06-11T11:23:11.089Z,98596.16
2018-06-11T11:25:40.603Z,98595.06
2018-06-11T11:28:09.968Z,98586.13
2018-06-11T11:30:39.329Z,98578.72
2018-06-11T11:33:08.737Z,98584.81
2018-06-11T11:35:38.138Z,98594.69
2018-06-11T11:38:07.503Z,98594.55
2018-06-11T11:40:36.909Z,98591.86
2018-06-11T11:43:06.267Z,98589.56
2018-06-11T11:45:35.609Z,98583.86
2018-06-11T11:48:05.039Z,98577.72
2018-06-11T11:50:34.406Z,98578.95
2018-06-11T11:53:05.456Z,98573.22
2018-06-11T11:55:34.825Z,98580.31
2018-06-11T11:58:04.323Z,98582.76
2018-06-11T12:00:33.770Z,98489.33
2018-06-11T12:03:03.132Z,98560.06
2018-06-11T12:05:32.750Z,98554.11
2018-06-11T12:08:02.187Z,98555.44
2018-06-11T12:10:31.600Z,98552.02
2018-06-11T12:13:02.101Z,98547.00
2018-06-11T12:15:31.616Z,98544.48
2018-06-11T12:18:01.040Z,98543.75
2018-06-11T12:20:30.457Z,98527.47
2018-06-11T12:22:59.828Z,98523.61
2018-06-11T12:25:29.230Z,98517.74
2018-06-11T12:27:58.628Z,98505.27
2018-06-11T12:30:28.000Z,98503.22
2018-06-11T12:32:57.564Z,98500.29
2018-06-11T12:35:27.085Z,98494.66
2018-06-11T12:37:56.493Z,98497.72
2018-06-11T12:40:25.890Z,98484.33
2018-06-11T12:42:55.268Z,98478.55
2018-06-11T12:45:24.849Z,98475.89
2018-06-11T12:47:54.233Z,98473.41
2018-06-11T12:50:23.748Z,98463.13
2018-06-11T12:52:53.303Z,98464.78
2018-06-11T12:55:22.792Z,98461.58
2018-06-11T12:57:52.148Z,98457.08
2018-06-11T13:00:21.572Z,98464.28
2018-06-11T13:02:50.944Z,98465.22
2018-06-11T13:05:20.353Z,98467.19
2018-06-11T13:07:49.970Z,98465.80
2018-06-11T13:10:19.522Z,98459.16
2018-06-11T13:12:48.894Z,98468.59
2018-06-11T13:15:18.782Z,98461.36
2018-06-11T13:17:48.280Z,98460.08
2018-06-11T13:20:17.827Z,98457.08
2018-06-11T13:22:47.213Z,98459.63
2018-06-11T13:25:16.800Z,98447.19
2018-06-11T13:27:46.231Z,98449.95
2018-06-11T13:30:15.734Z,98446.87
2018-06-11T13:32:45.414Z,98444.43
2018-06-11T13:35:14.967Z,98447.66
2018-06-11T13:37:44.357Z,98443.19
2018-06-11T13:40:13.893Z,98445.16
2018-06-11T13:42:43.253Z,98442.67
2018-06-11T13:45:12.869Z,98441.52
2018-06-11T13:47:42.239Z,98435.98
2018-06-11T13:50:12.934Z,98437.65
2018-06-11T13:52:42.459Z,98436.59
2018-06-11T13:55:12.120Z,98436.94
2018-06-11T13:57:41.472Z,98430.55
2018-06-11T14:00:10.893Z,98429.41
2018-06-11T14:02:40.243Z,98437.21
2018-06-11T14:05:09.959Z,98435.78
2018-06-11T14:07:39.338Z,98425.07
2018-06-11T14:10:08.772Z,98424.34
2018-06-11T14:12:38.148Z,98423.33
2018-06-11T14:15:07.877Z,98430.83
2018-06-11T14:17:37.244Z,98419.10
2018-06-11T14:20:06.603Z,98411.20
2018-06-11T14:22:36.063Z,98413.11
2018-06-11T14:25:05.517Z,98413.05
2018-06-11T14:27:34.881Z,98416.04
2018-06-11T14:30:04.341Z,98414.68
2018-06-11T14:32:33.793Z,98411.23
2018-06-11T14:35:03.165Z,98409.88
2018-06-11T14:37:32.634Z,98410.27
2018-06-11T14:40:02.012Z,98406.94
2018-06-11T14:42:31.689Z,98407.44
2018-06-11T14:45:01.097Z,98405.46
2018-06-11T14:47:30.555Z,98397.08
2018-06-11T14:50:00.030Z,98396.64
2018-06-11T14:52:34.750Z,98399.63
2018-06-11T14:55:09.536Z,98398.84
2018-06-11T14:57:44.212Z,98395.28
2018-06-11T15:00:13.838Z,98384.77
2018-06-11T15:02:43.281Z,98384.66
2018-06-11T15:05:12.726Z,98377.77
2018-06-11T15:07:42.235Z,98372.63
2018-06-11T15:10:11.795Z,98373.23
2018-06-11T15:12:41.316Z,98366.95
2018-06-11T15:15:11.548Z,98370.83
2018-06-11T15:17:40.972Z,98366.55
2018-06-11T15:20:10.515Z,98367.71
2018-06-11T15:22:40.772Z,98370.52
2018-06-11T15:25:13.038Z,98363.33
2018-06-11T15:27:42.263Z,98364.80
2018-06-11T15:30:11.852Z,98353.53
2018-06-11T15:32:41.683Z,98350.20
2018-06-11T15:35:11.860Z,98349.77
2018-06-11T15:37:41.245Z,98347.25
2018-06-11T15:40:10.849Z,98340.91
2018-06-11T15:42:40.244Z,98344.34
2018-06-11T15:45:09.849Z,98345.59
2018-06-11T15:47:39.209Z,98336.84
2018-06-11T15:50:08.706Z,98332.23
2018-06-11T15:52:38.345Z,98331.92
2018-06-11T15:55:07.774Z,98327.34
2018-06-11T15:57:37.160Z,98323.13
2018-06-11T16:00:06.678Z,98320.41
2018-06-11T16:02:36.147Z,98319.36
2018-06-11T16:05:05.669Z,98321.36
2018-06-11T16:07:35.120Z,98316.34
2018-06-11T16:10:04.829Z,98305.08
2018-06-11T16:12:34.305Z,98303.72
2018-06-11T16:15:03.779Z,98298.09
2018-06-11T16:17:34.112Z,98296.94
2018-06-11T16:20:03.651Z,98295.68
2018-06-11T16:22:35.088Z,98286.17
2018-06-11T16:25:06.162Z,98297.78
2018-06-11T16:27:35.542Z,98292.77
2018-06-11T16:30:05.064Z,98291.61
2018-06-11T16:32:34.536Z,98281.91
2018-06-11T16:35:03.996Z,98287.23
2018-06-11T16:37:33.415Z,98291.00
2018-06-11T16:40:02.852Z,98294.63
2018-06-11T16:42:32.245Z,98287.84
2018-06-11T16:45:01.648Z,98290.50
2018-06-11T16:47:31.033Z,98287.45
2018-06-11T16:50:00.860Z,98292.88
2018-06-11T16:52:30.351Z,98285.14
2018-06-11T16:54:59.741Z,98282.64
2018-06-11T16:57:29.165Z,98283.08
2018-06-11T16:59:58.546Z,98285.79
2018-06-11T17:02:27.952Z,98288.70
2018-06-11T17:04:57.293Z,98290.67
2018-06-11T17:07:26.665Z,98292.38
2018-06-11T17:09:56.057Z,98284.03
2018-06-11T17:12:25.736Z,98275.89
2018-06-11T17:14:55.108Z,98267.86
2018-06-11T17:17:24.493Z,98263.89
2018-06-11T17:19:53.875Z,98264.23
2018-06-11T17:22:23.245Z,98259.95
2018-06-11T17:24:52.689Z,98254.83
2018-06-11T17:27:22.753Z,98250.35
2018-06-11T17:29:52.197Z,98246.48
2018-06-11T17:32:21.561Z,98250.65
2018-06-11T17:34:50.900Z,98243.55
2018-06-11T17:37:20.463Z,98250.83
2018-06-11T17:39:50.150Z,98248.73
2018-06-11T17:42:19.464Z,98257.80
2018-06-11T17:44:48.824Z,98256.88
2018-06-11T17:47:18.322Z,98274.36
2018-06-11T17:49:47.804Z,98272.90
2018-06-11T17:52:17.276Z,98267.93
2018-06-11T17:54:46.816Z,98265.54
2018-06-11T17:57:16.323Z,98268.84
2018-06-11T17:59:45.828Z,98273.39
2018-06-11T18:02:15.232Z,98256.14
2018-06-11T18:04:44.670Z,98285.77
2018-06-11T18:07:14.204Z,98281.56
2018-06-11T18:09:43.621Z,98287.90
2018-06-11T18:12:13.000Z,98290.68
2018-06-11T18:14:42.385Z,98285.69
2018-06-11T18:17:11.775Z,98282.02
2018-06-11T18:19:41.149Z,98280.09
2018-06-11T18:22:10.525Z,98279.31
2018-06-11T18:24:40.002Z,98239.67
2018-06-11T18:27:09.357Z,98265.23
2018-06-11T18:29:38.817Z,98269.36
2018-06-11T18:32:08.245Z,98271.52
2018-06-11T18:34:37.642Z,98264.29
2018-06-11T18:37:07.047Z,98270.12
2018-06-11T18:39:36.402Z,98271.47
2018-06-11T18:42:06.146Z,98271.73
2018-06-11T18:44:35.513Z,98274.20
2018-06-11T18:47:05.394Z,98269.70
2018-06-11T18:49:34.881Z,98267.48
2018-06-11T18:52:04.289Z,98266.77
2018-06-11T18:54:33.674Z,98267.03
2018-06-11T18:57:03.091Z,98260.99
2018-06-11T18:59:32.773Z,98261.97
2018-06-11T19:02:02.118Z,98264.80
2018-06-11T19:04:31.544Z,98257.55
2018-06-11T19:07:00.900Z,98258.73
2018-06-11T19:09:30.261Z,98260.71
2018-06-11T19:11:59.719Z,98258.63
2018-06-11T19:14:29.112Z,98258.23
2018-06-11T19:16:58.501Z,98248.40
2018-06-11T19:19:27.870Z,98246.53
2018-06-11T19:21:57.278Z,98247.30
2018-06-11T19:24:26.663Z,98246.36
2018-06-11T19:26:56.099Z,98245.05
2018-06-11T19:29:25.471Z,98247.44
2018-06-11T19:31:54.821Z,98246.73
2018-06-11T19:34:24.196Z,98257.04
2018-06-11T19:36:53.611Z,98254.55
2018-06-11T19:39:22.979Z,98256.59
2018-06-11T19:41:52.361Z,98257.17
2018-06-11T19:44:21.733Z,98258.58
2018-06-11T19:46:51.253Z,98262.31
2018-06-11T19:49:20.634Z,98263.70
2018-06-11T19:51:50.041Z,98265.91
2018-06-11T19:54:19.486Z,98260.01
2018-06-11T19:56:49.091Z,98256.96
2018-06-11T19:59:18.810Z,98251.06
2018-06-11T20:01:48.171Z,98248.05
2018-06-11T20:04:17.777Z,98241.53
2018-06-11T20:06:47.168Z,98241.22
2018-06-11T20:09:16.597Z,98235.09
2018-06-11T20:11:46.133Z,98230.78
2018-06-11T20:14:15.496Z,98223.19
2018-06-11T20:16:44.884Z,98228.84
2018-06-11T20:19:14.264Z,98225.02
2018-06-11T20:21:43.773Z,98217.19
2018-06-11T20:24:13.556Z,98217.68
2018-06-11T20:26:42.977Z,98220.10
2018-06-11T20:29:12.498Z,98215.78
2018-06-11T20:31:41.972Z,98213.94
2018-06-11T20:34:11.572Z,98210.79
2018-06-11T20:36:40.992Z,98208.13
2018-06-11T20:39:10.390Z,98210.86
2018-06-11T20:41:39.804Z,98207.85
2018-06-11T20:44:09.820Z,98214.91
2018-06-11T20:46:39.504Z,98209.37
2018-06-11T20:49:08.925Z,98212.78
2018-06-11T20:51:38.656Z,98216.72
2018-06-11T20:54:08.052Z,98206.50
2018-06-11T20:56:37.449Z,98210.23
2018-06-11T20:59:10.254Z,98193.07
2018-06-11T21:01:39.641Z,98192.83
2018-06-11T21:04:10.042Z,98189.81
2018-06-11T21:06:39.424Z,98185.27
2018-06-11T21:09:09.471Z,98191.16
2018-06-11T21:11:39.438Z,98189.88
2018-06-11T21:14:08.976Z,98188.43
2018-06-11T21:16:38.510Z,98179.95
2018-06-11T21:19:07.892Z,98184.06
2018-06-11T21:21:37.304Z,98182.46
2018-06-11T21:24:10.561Z,98186.53
2018-06-11T21:26:40.567Z,98180.83
2018-06-11T21:29:10.306Z,98176.47
2018-06-11T21:31:39.732Z,98175.80
2018-06-11T21:34:09.133Z,98169.38
2018-06-11T21:36:38.512Z,98166.19
2018-06-11T21:39:08.795Z,98161.52
2018-06-11T21:41:38.177Z,98157.94
2018-06-11T21:44:07.604Z,98143.13
2018-06-11T21:46:37.011Z,98141.78
2018-06-11T21:49:06.427Z,98140.47
2018-06-11T21:51:35.993Z,98152.59
2018-06-11T21:54:05.393Z,98138.09
2018-06-11T21:56:34.802Z,98140.44
2018-06-11T21:59:04.217Z,98135.19
2018-06-11T22:01:33.665Z,98130.45
2018-06-11T22:04:03.298Z,98128.64
2018-06-11T22:06:32.697Z,98127.29
2018-06-11T22:09:02.746Z,98117.63
2018-06-11T22:11:32.117Z,98113.52
2018-06-11T22:14:01.497Z,98109.51
2018-06-11T22:16:30.880Z,98104.83
2018-06-11T22:19:00.225Z,98102.98
2018-06-11T22:21:29.616Z,98105.15
2018-06-11T22:23:59.015Z,98102.59
2018-06-11T22:26:28.396Z,98093.50
2018-06-11T22:28:58.009Z,98084.25
2018-06-11T22:31:27.401Z,98076.88
2018-06-11T22:33:57.664Z,98067.73
2018-06-11T22:36:30.137Z,98061.95
2018-06-11T22:38:59.532Z,98069.28
2018-06-11T22:41:29.485Z,98069.28
2018-06-11T22:43:59.115Z,98064.97
2018-06-11T22:46:28.490Z,98059.27
2018-06-11T22:48:57.998Z,98062.66
2018-06-11T22:51:28.450Z,97923.47
2018-06-11T22:53:57.826Z,98059.66
2018-06-11T22:56:27.393Z,98056.65
2018-06-11T22:58:56.930Z,98054.77
2018-06-11T23:01:26.333Z,98044.57
2018-06-11T23:03:55.697Z,98050.59
2018-06-11T23:06:25.080Z,98042.02
2018-06-11T23:08:54.476Z,98036.45
2018-06-11T23:11:23.936Z,98034.08
2018-06-11T23:13:53.382Z,98029.33
2018-06-11T23:16:22.744Z,98031.84
2018-06-11T23:18:52.140Z,98035.03
2018-06-11T23:21:21.591Z,98030.93
2018-06-11T23:23:50.995Z,98038.80
2018-06-11T23:26:20.400Z,98034.12
2018-06-11T23:28:49.806Z,98026.97
2018-06-11T23:31:19.200Z,98033.92
2018-06-11T23:33:48.590Z,98031.05
2018-06-11T23:36:17.953Z,98016.28
2018-06-11T23:38:47.418Z,98008.59
2018-06-11T23:41:16.867Z,98008.20
2018-06-11T23:43:46.274Z,98010.36
2018-06-11T23:46:15.664Z,98009.16
2018-06-11T23:48:45.047Z,98023.43
2018-06-11T23:51:14.418Z,98034.91
2018-06-11T23:53:43.801Z,98054.25
2018-06-11T23:56:13.227Z,98048.69
2018-06-11T23:58:43.495Z,98052.19
